Time,TemperatureF,DewpointF,PressureIn,WindDirection,WindDirectionDegrees,WindSpeedMPH,WindSpeedGustMPH,Humidity,HourlyPrecipIn,Conditions,Clouds,dailyrainin,SoftwareType,DateUTC
2013-03-15 00:02:00,26.0,22.0,-100.00,NNW,345,0.0,1.0,87,-99.99,,,-99.99,,2013-03-15 05:02:00,
2013-03-15 00:32:00,23.0,20.0,-100.00,East,80,0.0,2.0,88,-99.99,,,-99.99,,2013-03-15 05:32:00,
2013-03-15 00:42:00,23.0,20.0,-100.00,East,80,0.0,2.0,88,-99.99,,,-99.99,,2013-03-15 05:42:00,
2013-03-15 00:52:00,23.0,20.0,-100.00,East,80,0.0,2.0,88,-99.99,,,-99.99,,2013-03-15 05:52:00,
2013-03-15 01:02:00,23.0,20.0,-100.00,East,80,0.0,2.0,88,-99.99,,,-99.99,,2013-03-15 06:02:00,
2013-03-15 01:32:00,24.0,21.0,-100.00,ESE,115,1.0,2.0,88,-99.99,,,-99.99,,2013-03-15 06:32:00,
2013-03-15 01:42:00,24.0,21.0,-100.00,ESE,115,1.0,2.0,88,-99.99,,,-99.99,,2013-03-15 06:42:00,
2013-03-15 01:53:00,24.0,21.0,-100.00,ESE,115,1.0,2.0,88,-99.99,,,-99.99,,2013-03-15 06:53:00,
2013-03-15 02:02:00,24.0,21.0,-100.00,ESE,115,1.0,2.0,88,-99.99,,,-99.99,,2013-03-15 07:02:00,
2013-03-15 02:32:00,25.0,22.0,-100.00,East,95,0.0,2.0,89,-99.99,,,-99.99,,2013-03-15 07:32:00,
2013-03-15 02:42:00,25.0,22.0,-100.00,East,95,0.0,2.0,89,-99.99,,,-99.99,,2013-03-15 07:42:00,
2013-03-15 02:52:00,25.0,22.0,-100.00,East,95,0.0,2.0,89,-99.99,,,-99.99,,2013-03-15 07:52:00,
2013-03-15 03:02:00,25.0,22.0,-100.00,East,95,0.0,2.0,89,-99.99,,,-99.99,,2013-03-15 08:02:00,
2013-03-15 03:33:00,26.0,23.0,-100.00,West,275,0.0,4.0,89,-99.99,,,-99.99,,2013-03-15 08:33:00,
2013-03-15 03:42:00,26.0,23.0,-100.00,West,275,0.0,4.0,89,-99.99,,,-99.99,,2013-03-15 08:42:00,
2013-03-15 03:52:00,26.0,23.0,-100.00,West,275,0.0,4.0,89,-99.99,,,-99.99,,2013-03-15 08:52:00,
2013-03-15 04:02:00,26.0,23.0,-100.00,West,275,0.0,4.0,89,-99.99,,,-99.99,,2013-03-15 09:02:00,
2013-03-15 04:33:00,27.0,25.0,-100.00,WNW,290,0.0,8.0,89,-99.99,,,-99.99,,2013-03-15 09:33:00,
2013-03-15 04:43:00,27.0,25.0,-100.00,WNW,290,0.0,8.0,89,-99.99,,,-99.99,,2013-03-15 09:43:00,
2013-03-15 04:53:00,27.0,25.0,-100.00,WNW,290,0.0,8.0,89,-99.99,,,-99.99,,2013-03-15 09:53:00,
2013-03-15 05:03:00,27.0,25.0,-100.00,WNW,290,0.0,8.0,89,-99.99,,,-99.99,,2013-03-15 10:03:00,
2013-03-15 05:10:00,27.0,24.0,-100.00,WSW,240,1.0,3.0,89,-99.99,,,-99.99,,2013-03-15 10:10:00,
2013-03-15 05:33:00,27.0,24.0,-100.00,WSW,240,1.0,3.0,89,-99.99,,,-99.99,,2013-03-15 10:33:00,
2013-03-15 05:43:00,27.0,24.0,-100.00,WSW,240,1.0,3.0,89,-99.99,,,-99.99,,2013-03-15 10:43:00,
2013-03-15 05:52:00,27.0,24.0,-100.00,WSW,240,1.0,3.0,89,-99.99,,,-99.99,,2013-03-15 10:52:00,
2013-03-15 06:03:00,27.0,24.0,-100.00,WSW,240,1.0,3.0,89,-99.99,,,-99.99,,2013-03-15 11:03:00,
2013-03-15 06:32:00,29.0,26.0,-100.00,NW,320,1.0,4.0,89,-99.99,,,-99.99,,2013-03-15 11:32:00,
2013-03-15 06:42:00,29.0,26.0,-100.00,NW,320,1.0,4.0,89,-99.99,,,-99.99,,2013-03-15 11:42:00,
2013-03-15 06:52:00,29.0,26.0,-100.00,NW,320,1.0,4.0,89,-99.99,,,-99.99,,2013-03-15 11:52:00,
2013-03-15 07:02:00,29.0,26.0,-100.00,NW,320,1.0,4.0,89,-99.99,,,-99.99,,2013-03-15 12:02:00,
2013-03-15 07:32:00,29.0,26.0,-100.00,NW,325,1.0,6.0,87,-99.99,,,-99.99,,2013-03-15 12:32:00,
2013-03-15 07:42:00,29.0,26.0,-100.00,NW,325,1.0,6.0,87,-99.99,,,-99.99,,2013-03-15 12:42:00,
2013-03-15 07:52:00,29.0,26.0,-100.00,NW,325,1.0,6.0,87,-99.99,,,-99.99,,2013-03-15 12:52:00,
2013-03-15 08:02:00,29.0,26.0,-100.00,NW,325,1.0,6.0,87,-99.99,,,-99.99,,2013-03-15 13:02:00,
2013-03-15 08:32:00,31.0,26.0,-100.00,NNW,330,7.0,11.0,80,-99.99,,,-99.99,,2013-03-15 13:32:00,
2013-03-15 08:42:00,31.0,26.0,-100.00,NNW,330,7.0,11.0,80,-99.99,,,-99.99,,2013-03-15 13:42:00,
2013-03-15 08:52:00,31.0,26.0,-100.00,NNW,330,7.0,11.0,80,-99.99,,,-99.99,,2013-03-15 13:52:00,
2013-03-15 09:02:00,31.0,26.0,-100.00,NNW,330,7.0,11.0,80,-99.99,,,-99.99,,2013-03-15 14:02:00,
2013-03-15 09:33:00,32.0,26.0,-100.00,North,355,4.0,7.0,79,-99.99,,,-99.99,,2013-03-15 14:33:00,
2013-03-15 09:42:00,32.0,26.0,-100.00,North,355,4.0,7.0,79,-99.99,,,-99.99,,2013-03-15 14:42:00,
2013-03-15 09:53:00,32.0,26.0,-100.00,North,355,4.0,7.0,79,-99.99,,,-99.99,,2013-03-15 14:53:00,
2013-03-15 10:02:00,32.0,26.0,-100.00,North,355,4.0,7.0,79,-99.99,,,-99.99,,2013-03-15 15:02:00,
2013-03-15 10:33:00,33.0,26.0,-100.00,NW,320,3.0,6.0,75,-99.99,,,-99.99,,2013-03-15 15:33:00,
2013-03-15 10:43:00,33.0,26.0,-100.00,NW,320,3.0,6.0,75,-99.99,,,-99.99,,2013-03-15 15:43:00,
2013-03-15 10:53:00,33.0,26.0,-100.00,NW,320,3.0,6.0,75,-99.99,,,-99.99,,2013-03-15 15:53:00,
2013-03-15 11:03:00,33.0,26.0,-100.00,NW,320,3.0,6.0,75,-99.99,,,-99.99,,2013-03-15 16:03:00,
2013-03-15 11:32:00,34.0,27.0,-100.00,NE,50,1.0,4.0,75,-99.99,,,-99.99,,2013-03-15 16:32:00,
2013-03-15 11:42:00,34.0,27.0,-100.00,NE,50,1.0,4.0,75,-99.99,,,-99.99,,2013-03-15 16:42:00,
2013-03-15 11:52:00,34.0,27.0,-100.00,NE,50,1.0,4.0,75,-99.99,,,-99.99,,2013-03-15 16:52:00,
2013-03-15 12:02:00,34.0,27.0,-100.00,NE,50,1.0,4.0,75,-99.99,,,-99.99,,2013-03-15 17:02:00,
2013-03-15 12:10:00,33.0,27.0,-100.00,East,80,4.0,6.0,78,-99.99,,,-99.99,,2013-03-15 17:10:00,
2013-03-15 12:33:00,33.0,27.0,-100.00,East,80,4.0,6.0,78,-99.99,,,-99.99,,2013-03-15 17:33:00,
2013-03-15 12:43:00,33.0,27.0,-100.00,East,80,4.0,6.0,78,-99.99,,,-99.99,,2013-03-15 17:43:00,
2013-03-15 12:53:00,33.0,27.0,-100.00,East,80,4.0,6.0,78,-99.99,,,-99.99,,2013-03-15 17:53:00,
2013-03-15 13:02:00,33.0,27.0,-100.00,East,80,4.0,6.0,78,-99.99,,,-99.99,,2013-03-15 18:02:00,
2013-03-15 13:32:00,34.0,30.0,-100.00,NNW,345,0.0,2.0,83,-99.99,,,-99.99,,2013-03-15 18:32:00,
2013-03-15 13:42:00,34.0,30.0,-100.00,NNW,345,0.0,2.0,83,-99.99,,,-99.99,,2013-03-15 18:42:00,
2013-03-15 13:52:00,34.0,30.0,-100.00,NNW,345,0.0,2.0,83,-99.99,,,-99.99,,2013-03-15 18:52:00,
2013-03-15 14:02:00,34.0,30.0,-100.00,NNW,345,0.0,2.0,83,-99.99,,,-99.99,,2013-03-15 19:02:00,
2013-03-15 14:32:00,35.0,30.0,-100.00,East,95,2.0,5.0,83,-99.99,,,-99.99,,2013-03-15 19:32:00,
2013-03-15 14:42:00,35.0,30.0,-100.00,East,95,2.0,5.0,83,-99.99,,,-99.99,,2013-03-15 19:42:00,
2013-03-15 14:52:00,35.0,30.0,-100.00,East,95,2.0,5.0,83,-99.99,,,-99.99,,2013-03-15 19:52:00,
2013-03-15 15:02:00,35.0,30.0,-100.00,East,95,2.0,5.0,83,-99.99,,,-99.99,,2013-03-15 20:02:00,
2013-03-15 15:32:00,34.0,30.0,-100.00,ENE,75,4.0,7.0,84,-99.99,,,-99.99,,2013-03-15 20:32:00,
2013-03-15 15:42:00,34.0,30.0,-100.00,ENE,75,4.0,7.0,84,-99.99,,,-99.99,,2013-03-15 20:42:00,
2013-03-15 15:52:00,34.0,30.0,-100.00,ENE,75,4.0,7.0,84,-99.99,,,-99.99,,2013-03-15 20:52:00,
2013-03-15 16:02:00,34.0,30.0,-100.00,ENE,75,4.0,7.0,84,-99.99,,,-99.99,,2013-03-15 21:02:00,
2013-03-15 16:33:00,34.0,31.0,-100.00,East,80,8.0,14.0,87,-99.99,,,-99.99,,2013-03-15 21:33:00,
2013-03-15 16:43:00,34.0,31.0,-100.00,East,80,8.0,14.0,87,-99.99,,,-99.99,,2013-03-15 21:43:00,
2013-03-15 16:53:00,34.0,31.0,-100.00,East,80,8.0,14.0,87,-99.99,,,-99.99,,2013-03-15 21:53:00,
2013-03-15 17:03:00,34.0,31.0,-100.00,East,80,8.0,14.0,87,-99.99,,,-99.99,,2013-03-15 22:03:00,
2013-03-15 17:33:00,34.0,30.0,-100.00,ENE,65,6.0,12.0,87,-99.99,,,-99.99,,2013-03-15 22:33:00,
2013-03-15 17:42:00,34.0,30.0,-100.00,ENE,65,6.0,12.0,87,-99.99,,,-99.99,,2013-03-15 22:42:00,
2013-03-15 17:52:00,34.0,30.0,-100.00,ENE,65,6.0,12.0,87,-99.99,,,-99.99,,2013-03-15 22:52:00,
2013-03-15 18:02:00,34.0,30.0,-100.00,ENE,65,6.0,12.0,87,-99.99,,,-99.99,,2013-03-15 23:02:00,
2013-03-15 18:32:00,33.0,29.0,-100.00,East,95,6.0,7.0,85,-99.99,,,-99.99,,2013-03-15 23:32:00,
2013-03-15 18:42:00,33.0,29.0,-100.00,East,95,6.0,7.0,85,-99.99,,,-99.99,,2013-03-15 23:42:00,
2013-03-15 18:53:00,33.0,29.0,-100.00,East,95,6.0,7.0,85,-99.99,,,-99.99,,2013-03-15 23:53:00,
2013-03-15 19:02:00,33.0,29.0,-100.00,East,95,6.0,7.0,85,-99.99,,,-99.99,,2013-03-16 00:02:00,
2013-03-15 20:32:00,33.0,30.0,-100.00,East,95,4.0,7.0,87,-99.99,,,-99.99,,2013-03-16 01:32:00,
2013-03-15 20:42:00,33.0,30.0,-100.00,East,95,4.0,7.0,87,-99.99,,,-99.99,,2013-03-16 01:42:00,
2013-03-15 20:53:00,33.0,30.0,-100.00,East,95,4.0,7.0,87,-99.99,,,-99.99,,2013-03-16 01:53:00,
2013-03-15 21:02:00,33.0,30.0,-100.00,East,95,4.0,7.0,87,-99.99,,,-99.99,,2013-03-16 02:02:00,
2013-03-15 21:33:00,32.0,30.0,-100.00,East,100,7.0,15.0,89,-99.99,,,-99.99,,2013-03-16 02:33:00,
2013-03-15 21:43:00,32.0,30.0,-100.00,East,100,7.0,15.0,89,-99.99,,,-99.99,,2013-03-16 02:43:00,
2013-03-15 21:52:00,32.0,30.0,-100.00,East,100,7.0,15.0,89,-99.99,,,-99.99,,2013-03-16 02:52:00,
2013-03-15 22:02:00,32.0,30.0,-100.00,East,100,7.0,15.0,89,-99.99,,,-99.99,,2013-03-16 03:02:00,
2013-03-15 23:33:00,31.0,27.0,-100.00,East,95,7.0,13.0,88,-99.99,,,-99.99,,2013-03-16 04:33:00,
2013-03-15 23:43:00,31.0,27.0,-100.00,East,95,7.0,13.0,88,-99.99,,,-99.99,,2013-03-16 04:43:00,
2013-03-15 23:53:00,31.0,27.0,-100.00,East,95,7.0,13.0,88,-99.99,,,-99.99,,2013-03-16 04:53:00,